createdAt,value
2018-04-12T00:00:43.684Z,93.20
2018-04-12T00:03:09.790Z,93.20
2018-04-12T00:05:35.914Z,93.20
2018-04-12T00:08:02.026Z,93.00
2018-04-12T00:10:28.133Z,93.10
2018-04-12T00:12:54.241Z,93.00
2018-04-12T00:15:20.381Z,93.00
2018-04-12T00:17:47.259Z,93.20
2018-04-12T00:20:13.363Z,93.20
2018-04-12T00:22:39.482Z,93.10
2018-04-12T00:25:05.567Z,93.00
2018-04-12T00:27:32.405Z,93.10
2018-04-12T00:29:58.540Z,93.00
2018-04-12T00:32:24.667Z,93.00
2018-04-12T00:34:50.789Z,92.90
2018-04-12T00:37:16.897Z,93.00
2018-04-12T00:39:43.145Z,93.00
2018-04-12T00:42:09.242Z,93.00
2018-04-12T00:44:36.085Z,93.00
2018-04-12T00:47:02.200Z,93.00
2018-04-12T00:49:28.341Z,93.00
2018-04-12T00:51:54.437Z,93.00
2018-04-12T00:54:20.562Z,93.20
2018-04-12T00:56:47.408Z,93.20
2018-04-12T00:59:13.501Z,93.20
2018-04-12T01:01:39.639Z,93.30
2018-04-12T01:04:05.751Z,93.10
2018-04-12T01:06:31.869Z,93.10
2018-04-12T01:08:57.994Z,93.00
2018-04-12T01:11:24.097Z,93.20
2018-04-12T01:13:50.181Z,93.20
2018-04-12T01:16:17.049Z,92.90
2018-04-12T01:18:43.910Z,93.00
2018-04-12T01:21:10.021Z,93.00
2018-04-12T01:23:36.121Z,93.10
2018-04-12T01:26:02.233Z,93.10
2018-04-12T01:28:28.358Z,93.10
2018-04-12T01:30:55.237Z,93.20
2018-04-12T01:33:21.349Z,93.20
2018-04-12T01:35:48.249Z,93.00
2018-04-12T01:38:15.208Z,93.00
2018-04-12T01:40:41.606Z,93.00
2018-04-12T01:43:08.456Z,93.00
2018-04-12T01:45:35.306Z,93.00
2018-04-12T01:48:01.426Z,93.00
2018-04-12T01:50:27.547Z,93.00
2018-04-12T01:52:53.665Z,93.00
2018-04-12T01:55:19.817Z,93.00
2018-04-12T01:57:45.938Z,92.90
2018-04-12T02:00:12.049Z,92.90
2018-04-12T02:02:38.901Z,92.80
2018-04-12T02:05:05.042Z,92.80
2018-04-12T02:07:31.903Z,92.70
2018-04-12T02:09:58.755Z,93.00
2018-04-12T02:12:25.609Z,93.00
2018-04-12T02:14:52.510Z,92.90
2018-04-12T02:17:18.622Z,92.90
2018-04-12T02:19:44.702Z,93.00
2018-04-12T02:22:10.830Z,93.00
2018-04-12T02:24:36.914Z,93.10
2018-04-12T02:27:03.782Z,92.90
2018-04-12T02:29:30.614Z,92.90
2018-04-12T02:31:56.752Z,92.80
2018-04-12T02:34:22.906Z,92.80
2018-04-12T02:36:49.738Z,92.60
2018-04-12T02:39:15.869Z,92.60
2018-04-12T02:41:41.975Z,92.70
2018-04-12T02:44:08.121Z,92.70
2018-04-12T02:46:34.266Z,92.90
2018-04-12T02:49:00.373Z,93.00
2018-04-12T02:51:26.747Z,93.00
2018-04-12T02:53:52.840Z,92.70
2018-04-12T02:56:19.708Z,92.90
2018-04-12T02:58:46.580Z,92.50
2018-04-12T03:01:12.690Z,92.50
2018-04-12T03:03:39.567Z,92.70
2018-04-12T03:06:05.694Z,92.70
2018-04-12T03:08:31.785Z,92.70
2018-04-12T03:10:57.910Z,92.80
2018-04-12T03:13:24.021Z,93.20
2018-04-12T03:15:50.424Z,92.90
2018-04-12T03:18:16.524Z,92.80
2018-04-12T03:20:42.675Z,92.80
2018-04-12T03:23:08.801Z,92.90
2018-04-12T03:25:34.900Z,93.00
2018-04-12T03:28:01.008Z,92.90
2018-04-12T03:30:27.108Z,92.90
2018-04-12T03:32:53.257Z,92.60
2018-04-12T03:35:19.389Z,92.90
2018-04-12T03:37:45.523Z,92.80
2018-04-12T03:40:11.674Z,92.70
2018-04-12T03:42:37.819Z,92.90
2018-04-12T03:45:03.930Z,92.70
2018-04-12T03:47:30.059Z,92.70
2018-04-12T03:49:56.145Z,92.70
2018-04-12T03:52:22.268Z,92.80
2018-04-12T03:54:48.392Z,92.90
2018-04-12T03:57:14.525Z,92.80
2018-04-12T03:59:40.685Z,92.80
2018-04-12T04:02:06.809Z,92.90
2018-04-12T04:04:32.915Z,92.90
2018-04-12T04:06:59.819Z,93.00
2018-04-12T04:09:25.930Z,93.00
2018-04-12T04:11:52.749Z,92.90
2018-04-12T04:14:31.453Z,92.90
2018-04-12T04:17:10.488Z,92.50
2018-04-12T04:19:49.298Z,92.50
2018-04-12T04:22:15.400Z,92.60
2018-04-12T04:24:41.513Z,92.70
2018-04-12T04:27:07.665Z,92.60
2018-04-12T04:29:33.870Z,92.70
2018-04-12T04:32:00.016Z,92.70
2018-04-12T04:34:26.141Z,92.60
2018-04-12T04:36:52.249Z,92.60
2018-04-12T04:39:18.343Z,92.70
2018-04-12T04:41:44.453Z,92.70
2018-04-12T04:44:10.603Z,92.70
2018-04-12T04:46:36.718Z,92.80
2018-04-12T04:49:02.888Z,92.80
2018-04-12T04:51:29.822Z,92.80
2018-04-12T04:53:56.115Z,92.70
2018-04-12T04:56:22.342Z,92.60
2018-04-12T04:58:48.468Z,92.60
2018-04-12T05:01:14.595Z,92.60
2018-04-12T05:03:40.699Z,92.50
2018-04-12T05:06:07.633Z,92.60
2018-04-12T05:08:33.778Z,92.60
2018-04-12T05:10:59.955Z,92.50
2018-04-12T05:13:26.057Z,92.40
2018-04-12T05:15:52.196Z,92.40
2018-04-12T05:18:18.332Z,92.40
2018-04-12T05:20:44.484Z,92.40
2018-04-12T05:23:10.643Z,92.60
2018-04-12T05:25:36.776Z,92.60
2018-04-12T05:28:02.902Z,92.50
2018-04-12T05:30:29.031Z,92.50
2018-04-12T05:32:55.171Z,92.40
2018-04-12T05:35:21.282Z,92.10
2018-04-12T05:37:47.417Z,91.90
2018-04-12T05:40:13.537Z,92.00
2018-04-12T05:42:39.642Z,92.20
2018-04-12T05:45:06.527Z,92.00
2018-04-12T05:47:32.668Z,92.00
2018-04-12T05:49:58.765Z,92.40
2018-04-12T05:52:24.889Z,92.10
2018-04-12T05:54:50.991Z,92.10
2018-04-12T05:57:17.109Z,91.80
2018-04-12T05:59:46.057Z,91.90
2018-04-12T06:02:12.377Z,91.70
2018-04-12T06:04:38.537Z,91.80
2018-04-12T06:07:04.796Z,91.80
2018-04-12T06:09:30.919Z,91.80
2018-04-12T06:11:57.014Z,91.90
2018-04-12T06:14:23.134Z,91.50
2018-04-12T06:16:49.988Z,91.40
2018-04-12T06:19:16.886Z,91.30
2018-04-12T06:21:42.985Z,91.30
2018-04-12T06:24:09.871Z,91.60
2018-04-12T06:26:35.988Z,91.60
2018-04-12T06:29:02.851Z,91.60
2018-04-12T06:31:29.702Z,91.30
2018-04-12T06:33:55.846Z,91.30
2018-04-12T06:36:22.691Z,91.00
2018-04-12T06:38:49.536Z,91.30
2018-04-12T06:41:15.713Z,91.30
2018-04-12T06:43:41.806Z,91.10
2018-04-12T06:46:10.663Z,90.80
2018-04-12T06:48:36.927Z,90.80
2018-04-12T06:51:03.046Z,91.10
2018-04-12T06:53:29.172Z,91.10
2018-04-12T06:55:55.330Z,91.20
2018-04-12T06:58:21.490Z,91.10
2018-04-12T07:00:47.655Z,91.10
2018-04-12T07:03:13.818Z,91.00
2018-04-12T07:05:40.147Z,91.20
2018-04-12T07:08:06.261Z,91.00
2018-04-12T07:10:32.380Z,91.00
2018-04-12T07:12:58.519Z,90.80
2018-04-12T07:15:24.606Z,90.70
2018-04-12T07:17:51.530Z,90.90
2018-04-12T07:20:17.646Z,90.90
2018-04-12T07:22:43.773Z,91.10
2018-04-12T07:25:09.901Z,91.00
2018-04-12T07:27:36.049Z,91.40
2018-04-12T07:30:02.172Z,92.20
2018-04-12T07:32:28.290Z,92.50
2018-04-12T07:34:55.145Z,92.00
2018-04-12T07:37:21.289Z,92.00
2018-04-12T07:39:48.194Z,91.80
2018-04-12T07:42:14.360Z,91.80
2018-04-12T07:44:40.473Z,92.00
2018-04-12T07:47:06.598Z,91.80
2018-04-12T07:49:32.718Z,91.80
2018-04-12T07:51:58.840Z,91.80
2018-04-12T07:54:24.997Z,91.70
2018-04-12T07:56:51.131Z,91.50
2018-04-12T07:59:17.265Z,91.20
2018-04-12T08:01:43.432Z,91.30
2018-04-12T08:04:10.306Z,92.20
2018-04-12T08:06:36.581Z,92.20
2018-04-12T08:09:02.745Z,92.50
2018-04-12T08:11:28.909Z,92.60
2018-04-12T08:13:55.005Z,92.90
2018-04-12T08:16:21.956Z,92.80
2018-04-12T08:18:48.787Z,93.00
2018-04-12T08:21:14.910Z,93.00
2018-04-12T08:23:41.097Z,92.30
2018-04-12T08:26:07.272Z,91.60
2018-04-12T08:28:34.152Z,90.70
2018-04-12T08:31:00.310Z,90.70
2018-04-12T08:33:26.798Z,90.60
2018-04-12T08:35:52.937Z,90.00
2018-04-12T08:38:19.047Z,89.70
2018-04-12T08:40:45.173Z,89.10
2018-04-12T08:43:11.303Z,88.10
2018-04-12T08:45:37.414Z,88.20
2018-04-12T08:48:04.274Z,87.50
2018-04-12T08:50:30.379Z,87.40
2018-04-12T08:52:57.285Z,87.30
2018-04-12T08:55:23.411Z,87.30
2018-04-12T08:57:49.588Z,85.80
2018-04-12T09:00:15.702Z,85.90
2018-04-12T09:02:41.856Z,84.10
2018-04-12T09:05:07.969Z,84.10
2018-04-12T09:07:34.062Z,82.50
2018-04-12T09:10:00.947Z,81.50
2018-04-12T09:12:27.035Z,81.50
2018-04-12T09:14:53.235Z,81.70
2018-04-12T09:17:19.350Z,81.50
2018-04-12T09:19:45.473Z,81.10
2018-04-12T09:22:12.322Z,79.10
2018-04-12T09:24:38.490Z,79.10
2018-04-12T09:27:04.696Z,78.80
2018-04-12T09:29:30.777Z,80.00
2018-04-12T09:31:56.996Z,79.40
2018-04-12T09:34:23.131Z,79.20
2018-04-12T09:36:50.217Z,80.00
2018-04-12T09:39:16.391Z,80.80
2018-04-12T09:41:43.607Z,78.20
2018-04-12T09:44:09.720Z,78.20
2018-04-12T09:46:35.853Z,78.90
2018-04-12T09:49:02.013Z,79.20
2018-04-12T09:51:28.137Z,78.00
2018-04-12T09:53:55.006Z,78.50
2018-04-12T09:56:21.140Z,78.50
2018-04-12T09:58:47.256Z,77.00
2018-04-12T10:01:14.223Z,75.80
2018-04-12T10:03:43.129Z,74.70
2018-04-12T10:06:10.084Z,72.70
2018-04-12T10:08:36.264Z,71.90
2018-04-12T10:11:02.408Z,70.50
2018-04-12T10:13:28.496Z,70.60
2018-04-12T10:15:54.645Z,70.80
2018-04-12T10:18:20.756Z,70.60
2018-04-12T10:20:46.885Z,71.20
2018-04-12T10:23:12.981Z,70.00
2018-04-12T10:25:40.259Z,70.50
2018-04-12T10:28:06.389Z,68.70
2018-04-12T10:30:32.524Z,69.10
2018-04-12T10:32:59.447Z,69.00
2018-04-12T10:35:25.609Z,69.00
2018-04-12T10:37:51.753Z,67.80
2018-04-12T10:40:18.625Z,66.30
2018-04-12T10:42:44.820Z,66.30
2018-04-12T10:45:11.780Z,65.70
2018-04-12T10:47:37.931Z,64.80
2018-04-12T10:50:04.111Z,65.10
2018-04-12T10:52:30.267Z,63.60
2018-04-12T10:54:56.388Z,64.70
2018-04-12T10:57:22.502Z,63.80
2018-04-12T10:59:48.641Z,64.70
2018-04-12T11:02:15.510Z,65.10
2018-04-12T11:04:41.933Z,65.10
2018-04-12T11:07:08.837Z,64.30
2018-04-12T11:09:34.992Z,64.80
2018-04-12T11:12:01.137Z,64.20
2018-04-12T11:14:27.298Z,63.80
2018-04-12T11:16:53.450Z,62.80
2018-04-12T11:19:23.982Z,63.10
2018-04-12T11:21:50.181Z,63.00
2018-04-12T11:24:16.412Z,63.30
2018-04-12T11:26:43.467Z,60.70
2018-04-12T11:29:09.610Z,60.70
2018-04-12T11:31:36.186Z,61.80
2018-04-12T11:34:02.350Z,60.30
2018-04-12T11:36:28.506Z,59.40
2018-04-12T11:38:55.474Z,59.30
2018-04-12T11:41:21.683Z,59.20
2018-04-12T11:43:48.117Z,59.20
2018-04-12T11:46:14.276Z,59.70
2018-04-12T11:48:40.545Z,60.00
2018-04-12T11:51:07.619Z,59.00
2018-04-12T11:53:34.565Z,59.30
2018-04-12T11:56:00.733Z,59.20
2018-04-12T11:58:27.149Z,58.60
2018-04-12T12:00:53.387Z,58.40
2018-04-12T12:03:21.218Z,59.30
2018-04-12T12:05:47.798Z,59.10
2018-04-12T12:08:13.945Z,57.80
2018-04-12T12:10:40.793Z,57.00
2018-04-12T12:13:07.705Z,57.60
2018-04-12T12:15:33.878Z,57.60
2018-04-12T12:18:00.014Z,57.50
2018-04-12T12:20:26.185Z,57.20
2018-04-12T12:22:53.059Z,57.70
2018-04-12T12:25:19.184Z,57.70
2018-04-12T12:27:45.416Z,56.80
2018-04-12T12:30:12.297Z,58.00
2018-04-12T12:32:38.429Z,58.00
2018-04-12T12:35:04.785Z,58.00
2018-04-12T12:37:31.058Z,58.60
2018-04-12T13:06:19.138Z,57.60
2018-04-12T13:08:45.328Z,55.70
2018-04-12T13:11:12.246Z,55.70
2018-04-12T13:13:38.414Z,55.40
2018-04-12T13:16:04.718Z,55.10
2018-04-12T13:18:32.119Z,55.60
2018-04-12T13:20:58.242Z,55.20
2018-04-12T13:23:24.478Z,55.70
2018-04-12T13:25:50.597Z,54.80
2018-04-12T13:28:16.767Z,54.90
2018-04-12T13:30:42.958Z,55.10
2018-04-12T13:33:09.159Z,55.00
2018-04-12T13:35:35.286Z,53.90
2018-04-12T13:38:01.409Z,53.90
2018-04-12T13:40:27.495Z,54.70
2018-04-12T13:42:54.382Z,54.40
2018-04-12T13:45:20.531Z,54.30
2018-04-12T13:47:46.717Z,54.10
2018-04-12T13:50:12.862Z,53.20
2018-04-12T13:52:47.893Z,52.10
2018-04-12T13:55:14.775Z,52.80
2018-04-12T14:15:43.805Z,51.70
2018-04-12T14:18:14.830Z,52.10
2018-04-12T14:20:45.222Z,52.10
2018-04-12T14:44:01.272Z,49.70
2018-04-12T14:46:30.038Z,48.70
2018-04-12T14:51:34.503Z,47.20
2018-04-12T14:54:19.088Z,47.20
2018-04-12T14:56:42.952Z,47.20
2018-04-12T14:59:11.627Z,47.80
2018-04-12T15:01:39.385Z,47.90
2018-04-12T15:06:39.425Z,49.30
2018-04-12T15:11:52.140Z,49.90
2018-04-12T15:14:18.796Z,49.90
2018-04-12T15:16:45.376Z,50.10
2018-04-12T15:19:12.531Z,49.90
2018-04-12T15:21:39.367Z,50.50
2018-04-12T15:24:11.517Z,51.20
2018-04-12T15:26:39.557Z,50.60
2018-04-12T15:29:06.563Z,50.30
2018-04-12T15:52:20.002Z,50.00
2018-04-12T15:57:49.986Z,49.40
2018-04-12T16:06:10.575Z,48.30
2018-04-12T16:08:38.829Z,46.80
2018-04-12T16:11:06.874Z,46.10
2018-04-12T16:13:37.989Z,45.20
2018-04-12T16:16:06.619Z,43.60
2018-04-12T16:21:41.921Z,42.70
2018-04-12T16:27:04.780Z,43.40
2018-04-12T16:50:52.449Z,49.20
2018-04-12T16:53:21.783Z,50.80
2018-04-12T17:08:03.908Z,51.10
2018-04-12T17:10:33.551Z,51.50
2018-04-12T19:59:43.333Z,67.60
2018-04-12T20:02:09.478Z,68.60
2018-04-12T20:04:35.615Z,69.70
2018-04-12T20:07:01.731Z,71.00
2018-04-12T20:09:28.597Z,72.40
2018-04-12T20:11:54.699Z,72.30
2018-04-12T20:14:20.891Z,72.60
2018-04-12T20:16:49.731Z,73.10
2018-04-12T20:19:16.114Z,74.10
2018-04-12T20:21:42.228Z,73.90
2018-04-12T20:24:08.378Z,74.20
2018-04-12T20:26:34.553Z,74.90
2018-04-12T20:29:00.664Z,75.50
2018-04-12T20:31:26.805Z,75.90
2018-04-12T20:33:52.979Z,76.00
2018-04-12T20:42:24.821Z,77.10
2018-04-12T20:44:50.951Z,77.90
2018-04-12T20:47:17.066Z,78.00
2018-04-12T20:49:43.292Z,78.20
2018-04-12T20:52:09.401Z,78.50
2018-04-12T20:54:35.536Z,78.70
2018-04-12T20:57:01.635Z,79.30
2018-04-12T20:59:27.738Z,79.50
2018-04-12T21:01:53.858Z,79.90
2018-04-12T21:04:19.977Z,80.50
2018-04-12T21:06:46.101Z,80.90
2018-04-12T21:09:12.252Z,81.10
2018-04-12T21:11:38.410Z,80.80
2018-04-12T21:14:04.530Z,80.80
2018-04-12T21:16:30.641Z,81.10
2018-04-12T21:18:56.866Z,80.60
2018-04-12T21:21:22.971Z,81.10
2018-04-12T21:23:49.070Z,81.60
2018-04-12T21:26:15.245Z,81.70
2018-04-12T21:28:41.426Z,81.90
2018-04-12T21:31:07.537Z,82.50
2018-04-12T21:33:33.680Z,82.60
2018-04-12T21:35:59.791Z,82.90
2018-04-12T21:38:25.932Z,83.40
2018-04-12T21:40:52.022Z,83.50
2018-04-12T21:43:18.220Z,84.00
2018-04-12T21:45:44.379Z,83.50
2018-04-12T21:48:10.492Z,83.90
2018-04-12T21:50:36.625Z,84.30
2018-04-12T21:53:02.750Z,84.90
2018-04-12T21:55:29.017Z,84.70
2018-04-12T21:57:55.223Z,85.20
2018-04-12T22:00:21.381Z,85.20
2018-04-12T22:02:47.666Z,85.20
2018-04-12T22:05:13.996Z,85.00
2018-04-12T22:07:40.137Z,84.80
2018-04-12T22:10:06.334Z,85.80
2018-04-12T22:12:32.435Z,85.90
2018-04-12T22:14:59.327Z,86.00
2018-04-12T22:17:25.496Z,85.90
2018-04-12T22:19:51.769Z,86.30
2018-04-12T22:22:17.919Z,87.00
2018-04-12T22:24:44.038Z,87.30
2018-04-12T22:27:10.181Z,87.70
2018-04-12T22:29:36.452Z,88.00
2018-04-12T22:32:02.632Z,87.50
2018-04-12T22:37:32.196Z,88.00
2018-04-12T22:40:02.421Z,88.30
2018-04-12T22:51:42.754Z,89.20
2018-04-12T22:54:18.602Z,89.40
2018-04-12T22:56:48.414Z,89.30
2018-04-12T22:59:16.117Z,89.50
2018-04-12T23:01:45.156Z,89.80
2018-04-12T23:04:13.391Z,89.80
2018-04-12T23:06:40.574Z,90.00
2018-04-12T23:12:39.596Z,90.00
2018-04-12T23:38:54.017Z,90.70
2018-04-12T23:41:22.083Z,90.60
2018-04-12T23:43:49.406Z,90.60
2018-04-12T23:46:18.847Z,90.80
2018-04-12T23:48:46.283Z,90.80
2018-04-12T23:51:15.871Z,91.00
2018-04-12T23:53:42.362Z,90.80
2018-04-12T23:56:11.885Z,91.00
2018-04-12T23:58:38.563Z,91.30
